createdAt,value
2018-07-19T00:01:07.117Z,89.05
2018-07-19T00:03:35.478Z,89.02
2018-07-19T00:06:03.801Z,88.89
2018-07-19T00:08:32.134Z,88.95
2018-07-19T00:11:03.036Z,89.03
2018-07-19T00:13:31.949Z,88.99
2018-07-19T00:15:59.723Z,88.93
2018-07-19T00:18:28.051Z,88.96
2018-07-19T00:20:56.379Z,89.18
2018-07-19T00:23:24.712Z,89.26
2018-07-19T00:25:53.562Z,89.34
2018-07-19T00:28:21.947Z,89.59
2018-07-19T00:30:50.271Z,89.58
2018-07-19T00:33:18.599Z,89.59
2018-07-19T00:35:46.932Z,89.84
2018-07-19T00:38:15.259Z,89.85
2018-07-19T00:40:43.585Z,89.75
2018-07-19T00:43:11.921Z,89.78
2018-07-19T00:45:40.246Z,89.96
2018-07-19T00:48:07.994Z,90.23
2018-07-19T00:50:36.315Z,90.27
2018-07-19T00:53:05.231Z,90.17
2018-07-19T00:55:33.567Z,90.04
2018-07-19T00:58:01.896Z,89.99
2018-07-19T01:00:30.226Z,89.95
2018-07-19T01:02:57.972Z,89.96
2018-07-19T01:05:26.296Z,89.96
2018-07-19T01:07:55.200Z,90.16
2018-07-19T01:10:23.530Z,89.91
2018-07-19T01:12:51.852Z,89.71
2018-07-19T01:15:19.605Z,89.54
2018-07-19T01:17:49.192Z,89.44
2018-07-19T01:20:16.942Z,89.47
2018-07-19T01:22:45.861Z,89.35
2018-07-19T01:25:14.180Z,89.33
2018-07-19T01:27:42.506Z,89.09
2018-07-19T01:30:10.841Z,88.78
2018-07-19T01:32:38.690Z,88.75
2018-07-19T01:35:07.511Z,88.79
2018-07-19T01:37:35.245Z,88.71
2018-07-19T01:40:03.580Z,88.68
2018-07-19T01:42:31.959Z,88.55
2018-07-19T01:45:00.308Z,88.28
2018-07-19T01:47:29.222Z,88.15
2018-07-19T01:49:56.967Z,88.29
2018-07-19T01:52:25.874Z,88.18
2018-07-19T01:54:53.634Z,88.20
2018-07-19T01:57:22.543Z,88.46
2018-07-19T01:59:50.864Z,88.80
2018-07-19T02:02:19.192Z,88.89
2018-07-19T02:04:47.509Z,88.93
2018-07-19T02:07:15.271Z,88.99
2018-07-19T02:09:44.186Z,88.82
2018-07-19T02:12:11.936Z,88.57
2018-07-19T02:14:40.859Z,88.34
2018-07-19T02:17:08.608Z,88.21
2018-07-19T02:19:37.549Z,88.17
2018-07-19T02:22:05.880Z,88.17
2018-07-19T02:24:34.209Z,88.00
2018-07-19T02:27:01.953Z,87.90
2018-07-19T02:29:30.858Z,87.84
2018-07-19T02:31:58.612Z,87.79
2018-07-19T02:34:26.941Z,87.72
2018-07-19T02:36:55.852Z,87.66
2018-07-19T02:39:24.173Z,87.60
2018-07-19T02:41:52.507Z,87.59
2018-07-19T02:44:20.848Z,87.72
2018-07-19T02:46:49.212Z,87.70
2018-07-19T02:49:17.535Z,87.73
2018-07-19T02:51:45.863Z,88.08
2018-07-19T02:54:14.184Z,88.12
2018-07-19T02:56:42.187Z,88.22
2018-07-19T02:59:10.836Z,88.30
2018-07-19T03:01:39.183Z,88.38
2018-07-19T03:04:06.995Z,88.34
2018-07-19T03:06:35.869Z,88.20
2018-07-19T03:09:03.589Z,88.34
2018-07-19T03:11:31.931Z,88.36
2018-07-19T03:14:00.256Z,88.36
2018-07-19T03:16:29.166Z,88.32
2018-07-19T03:18:56.944Z,88.33
2018-07-19T03:21:25.305Z,88.07
2018-07-19T03:23:53.612Z,87.96
2018-07-19T03:26:22.516Z,87.71
2018-07-19T03:28:50.252Z,87.61
2018-07-19T03:31:18.578Z,87.69
2018-07-19T03:33:46.899Z,87.60
2018-07-19T03:36:15.805Z,87.53
2018-07-19T03:38:43.552Z,87.28
2018-07-19T03:41:12.471Z,87.43
2018-07-19T03:43:40.800Z,87.42
2018-07-19T03:46:09.247Z,87.28
2018-07-19T03:48:36.987Z,87.09
2018-07-19T03:51:05.888Z,87.11
2018-07-19T03:53:34.212Z,87.16
2018-07-19T03:56:02.536Z,87.16
2018-07-19T03:58:30.877Z,87.12
2018-07-19T04:00:59.223Z,87.07
2018-07-19T04:03:26.955Z,86.95
2018-07-19T04:05:55.543Z,86.75
2018-07-19T04:08:24.211Z,86.85
2018-07-19T04:10:52.538Z,86.87
2018-07-19T04:13:20.864Z,86.72
2018-07-19T04:15:48.606Z,86.54
2018-07-19T04:18:17.507Z,86.76
2018-07-19T04:20:45.849Z,86.68
2018-07-19T04:23:13.589Z,86.52
2018-07-19T04:25:42.509Z,86.39
2018-07-19T04:28:10.257Z,86.43
2018-07-19T04:30:39.160Z,86.46
2018-07-19T04:33:07.484Z,86.32
2018-07-19T04:35:35.233Z,86.38
2018-07-19T04:38:04.148Z,86.27
2018-07-19T04:40:31.986Z,86.09
2018-07-19T04:43:00.805Z,86.10
2018-07-19T04:45:28.544Z,85.89
2018-07-19T04:47:57.490Z,85.72
2018-07-19T04:50:25.841Z,85.48
2018-07-19T04:52:54.178Z,85.47
2018-07-19T04:55:21.917Z,85.23
2018-07-19T04:57:50.836Z,85.21
2018-07-19T05:00:19.161Z,85.07
2018-07-19T05:02:46.905Z,84.63
2018-07-19T05:05:15.804Z,84.50
2018-07-19T05:07:43.684Z,84.42
2018-07-19T05:10:12.471Z,84.15
2018-07-19T05:12:40.233Z,83.70
2018-07-19T05:15:09.118Z,83.73
2018-07-19T05:17:37.339Z,83.75
2018-07-19T05:20:05.774Z,83.68
2018-07-19T05:22:33.946Z,83.22
2018-07-19T05:25:01.857Z,83.55
2018-07-19T05:27:30.774Z,83.20
2018-07-19T05:29:58.518Z,83.03
2018-07-19T05:32:27.425Z,82.91
2018-07-19T05:34:55.271Z,82.77
2018-07-19T05:37:24.073Z,82.72
2018-07-19T05:39:52.403Z,82.80
2018-07-19T05:42:20.768Z,82.63
2018-07-19T05:44:48.472Z,82.44
2018-07-19T05:47:17.370Z,82.09
2018-07-19T05:49:45.730Z,81.91
2018-07-19T05:52:13.475Z,81.52
2018-07-19T05:54:41.800Z,81.19
2018-07-19T05:57:10.712Z,80.79
2018-07-19T05:59:38.714Z,80.61
2018-07-19T06:02:07.370Z,80.81
2018-07-19T06:04:35.105Z,80.62
2018-07-19T06:07:04.613Z,80.30
2018-07-19T06:09:32.013Z,80.29
2018-07-19T06:12:00.085Z,80.31
2018-07-19T06:14:29.007Z,80.24
2018-07-19T06:16:57.320Z,80.09
2018-07-19T06:19:25.075Z,79.63
2018-07-19T06:21:53.977Z,78.98
2018-07-19T06:24:22.323Z,79.01
2018-07-19T06:26:50.057Z,79.05
2018-07-19T06:29:18.965Z,79.19
2018-07-19T06:31:46.705Z,79.25
2018-07-19T06:34:15.612Z,79.02
2018-07-19T06:36:43.937Z,78.72
2018-07-19T06:39:12.269Z,78.29
2018-07-19T06:41:40.026Z,77.89
2018-07-19T06:44:08.361Z,77.85
2018-07-19T06:46:37.272Z,77.17
2018-07-19T06:49:05.604Z,76.48
2018-07-19T06:51:34.000Z,75.99
2018-07-19T06:54:02.328Z,75.36
2018-07-19T06:56:30.075Z,75.29
2018-07-19T06:58:58.973Z,74.57
2018-07-19T07:01:26.732Z,74.39
2018-07-19T07:03:55.062Z,73.93
2018-07-19T07:06:23.982Z,73.55
2018-07-19T07:08:51.829Z,72.94
2018-07-19T07:11:20.057Z,71.36
2018-07-19T07:13:48.391Z,70.82
2018-07-19T07:16:17.302Z,70.79
2018-07-19T07:18:45.044Z,70.76
2018-07-19T07:21:14.017Z,70.70
2018-07-19T07:23:42.291Z,70.71
2018-07-19T07:26:10.032Z,69.91
2018-07-19T07:28:38.929Z,70.13
2018-07-19T07:31:07.273Z,69.72
2018-07-19T07:33:35.591Z,69.20
2018-07-19T07:36:03.919Z,68.95
2018-07-19T07:38:32.252Z,68.89
2018-07-19T07:41:00.201Z,68.96
2018-07-19T07:43:28.375Z,68.71
2018-07-19T07:45:56.641Z,68.87
2018-07-19T07:48:26.011Z,69.00
2018-07-19T07:50:54.336Z,67.99
2018-07-19T07:53:22.137Z,67.35
2018-07-19T07:55:50.440Z,67.02
2018-07-19T07:58:19.347Z,67.99
2018-07-19T08:00:47.675Z,68.03
2018-07-19T08:03:16.007Z,67.32
2018-07-19T08:05:43.899Z,67.26
2018-07-19T08:08:12.674Z,67.11
2018-07-19T08:10:40.988Z,66.86
2018-07-19T08:13:09.319Z,66.75
2018-07-19T08:15:37.249Z,66.47
2018-07-19T08:18:05.981Z,65.86
2018-07-19T08:20:34.309Z,65.10
2018-07-19T08:23:02.051Z,65.25
2018-07-19T08:25:30.381Z,64.95
2018-07-19T08:27:59.290Z,64.51
2018-07-19T08:30:27.042Z,64.83
2018-07-19T08:32:55.988Z,65.00
2018-07-19T08:35:24.321Z,65.31
2018-07-19T08:37:52.065Z,65.47
2018-07-19T08:40:21.062Z,64.21
2018-07-19T08:42:48.869Z,63.64
2018-07-19T08:45:17.787Z,63.18
2018-07-19T08:47:46.136Z,63.11
2018-07-19T08:50:14.478Z,62.70
2018-07-19T08:52:42.844Z,62.08
2018-07-19T08:55:11.932Z,61.47
2018-07-19T08:57:40.464Z,61.86
2018-07-19T09:00:08.803Z,61.68
2018-07-19T09:02:37.372Z,61.65
2018-07-19T09:07:41.588Z,60.73
2018-07-19T09:10:11.187Z,59.74
2018-07-19T09:12:42.070Z,59.78
2018-07-19T09:15:11.252Z,59.72
2018-07-19T09:17:37.836Z,59.50
2018-07-19T09:20:07.107Z,58.88
2018-07-19T09:22:36.598Z,58.49
2018-07-19T09:25:05.793Z,57.46
2018-07-19T09:27:34.428Z,57.44
2018-07-19T09:30:02.766Z,57.60
2018-07-19T09:32:31.133Z,56.77
2018-07-19T09:34:59.481Z,56.19
2018-07-19T09:37:27.871Z,55.26
2018-07-19T09:39:58.121Z,54.58
2018-07-19T09:42:26.485Z,53.29
2018-07-19T09:44:54.812Z,53.80
2018-07-19T09:47:22.565Z,55.09
2018-07-19T09:49:51.787Z,55.24
2018-07-19T09:52:20.400Z,53.62
2018-07-19T09:54:50.184Z,53.38
2018-07-19T09:57:19.019Z,54.32
2018-07-19T09:59:47.513Z,54.88
2018-07-19T10:02:15.820Z,55.86
2018-07-19T10:04:44.134Z,56.16
2018-07-19T10:07:12.718Z,55.73
2018-07-19T10:09:40.933Z,56.30
2018-07-19T10:12:08.721Z,56.65
2018-07-19T10:14:37.609Z,56.75
2018-07-19T10:17:05.352Z,55.60
2018-07-19T10:19:34.572Z,54.97
2018-07-19T10:22:04.402Z,55.11
2018-07-19T10:24:32.629Z,54.80
2018-07-19T10:27:01.608Z,55.38
2018-07-19T10:29:29.932Z,56.05
2018-07-19T10:31:58.351Z,55.39
2018-07-19T10:34:27.582Z,55.02
2018-07-19T10:36:55.865Z,55.01
2018-07-19T10:39:23.621Z,55.03
2018-07-19T10:41:53.045Z,54.90
2018-07-19T10:44:21.198Z,55.15
2018-07-19T10:46:49.494Z,55.63
2018-07-19T10:49:17.826Z,55.43
2018-07-19T10:51:46.878Z,55.02
2018-07-19T10:54:15.724Z,55.08
2018-07-19T10:56:44.098Z,55.43
2018-07-19T10:59:12.478Z,54.95
2018-07-19T11:01:40.857Z,55.05
2018-07-19T11:04:09.195Z,55.15
2018-07-19T11:06:37.526Z,54.98
2018-07-19T11:09:05.849Z,55.01
2018-07-19T11:11:34.208Z,55.44
2018-07-19T11:14:02.540Z,55.09
2018-07-19T11:16:30.870Z,54.13
2018-07-19T11:18:58.614Z,53.59
2018-07-19T11:21:27.532Z,52.92
2018-07-19T11:23:55.370Z,53.16
2018-07-19T11:26:24.264Z,53.25
2018-07-19T11:28:52.812Z,53.47
2018-07-19T11:31:20.935Z,53.23
2018-07-19T11:33:49.297Z,53.00
2018-07-19T11:36:17.693Z,54.08
2018-07-19T11:38:45.435Z,54.65
2018-07-19T11:41:14.353Z,54.73
2018-07-19T11:43:42.686Z,55.36
2018-07-19T11:46:11.027Z,55.87
2018-07-19T11:48:39.350Z,55.87
2018-07-19T11:51:07.677Z,56.42
2018-07-19T11:53:36.021Z,56.51
2018-07-19T11:56:04.357Z,56.56
2018-07-19T11:58:32.111Z,56.44
2018-07-19T12:01:01.838Z,57.28
2018-07-19T12:03:29.581Z,56.01
2018-07-19T12:05:57.904Z,54.04
2018-07-19T12:08:26.807Z,51.96
2018-07-19T12:10:54.563Z,50.76
2018-07-19T12:13:22.908Z,50.40
2018-07-19T12:15:51.208Z,50.05
2018-07-19T12:18:20.108Z,49.96
2018-07-19T12:20:48.436Z,49.62
2018-07-19T12:23:16.736Z,49.36
2018-07-19T12:25:45.122Z,49.72
2018-07-19T12:28:12.864Z,50.27
2018-07-19T12:30:41.773Z,49.53
2018-07-19T12:33:09.806Z,49.70
2018-07-19T12:35:37.856Z,49.70
2018-07-19T12:38:06.186Z,49.49
2018-07-19T12:40:35.077Z,49.82
2018-07-19T12:43:03.410Z,49.28
2018-07-19T12:45:31.735Z,48.67
2018-07-19T12:48:00.045Z,48.92
2018-07-19T12:50:28.359Z,49.10
2018-07-19T12:52:56.095Z,49.74
2018-07-19T12:55:24.999Z,49.74
2018-07-19T12:57:52.746Z,49.04
2018-07-19T13:00:21.703Z,48.27
2018-07-19T13:02:50.038Z,47.86
2018-07-19T13:05:18.512Z,47.46
2018-07-19T13:07:46.085Z,47.27
2018-07-19T13:10:14.404Z,47.75
2018-07-19T13:12:42.725Z,47.04
2018-07-19T13:15:11.672Z,46.43
2018-07-19T13:17:39.408Z,46.04
2018-07-19T13:20:07.735Z,45.13
2018-07-19T13:22:36.629Z,45.59
2018-07-19T13:25:04.389Z,46.93
2018-07-19T13:27:32.719Z,47.40
2018-07-19T13:30:01.608Z,47.78
2018-07-19T13:32:29.388Z,47.26
2018-07-19T13:34:58.282Z,47.90
2018-07-19T13:37:26.164Z,48.76
2018-07-19T13:39:55.182Z,48.78
2018-07-19T13:42:24.897Z,48.45
2018-07-19T13:44:53.230Z,48.38
2018-07-19T13:47:21.550Z,48.43
2018-07-19T13:49:50.236Z,49.04
2018-07-19T13:52:18.558Z,48.84
2018-07-19T13:54:46.882Z,48.76
2018-07-19T13:57:15.215Z,50.31
2018-07-19T13:59:43.527Z,49.87
2018-07-19T14:02:12.608Z,48.38
2018-07-19T14:04:40.395Z,48.43
2018-07-19T14:07:08.714Z,48.48
2018-07-19T14:09:37.638Z,48.59
2018-07-19T14:12:05.951Z,49.24
2018-07-19T14:14:34.683Z,50.06
2018-07-19T14:17:02.999Z,50.56
2018-07-19T14:19:31.347Z,50.36
2018-07-19T14:21:59.687Z,49.36
2018-07-19T14:24:28.008Z,48.28
2018-07-19T14:26:56.330Z,48.23
2018-07-19T14:29:24.913Z,47.65
2018-07-19T14:31:53.833Z,47.88
2018-07-19T14:34:22.150Z,49.00
2018-07-19T14:36:50.480Z,48.43
2018-07-19T14:39:19.404Z,47.90
2018-07-19T14:41:47.172Z,47.42
2018-07-19T14:44:15.498Z,46.90
2018-07-19T14:46:43.833Z,47.53
2018-07-19T14:49:12.204Z,48.61
2018-07-19T14:51:40.558Z,49.42
2018-07-19T14:54:08.878Z,49.76
2018-07-19T14:56:36.641Z,48.78
2018-07-19T14:59:04.985Z,48.37
2018-07-19T15:01:33.920Z,47.56
2018-07-19T15:04:02.268Z,47.47
2018-07-19T15:06:30.769Z,46.94
2018-07-19T15:08:58.558Z,47.09
2018-07-19T15:11:29.096Z,46.80
2018-07-19T15:13:56.292Z,46.68
2018-07-19T15:16:24.034Z,47.16
2018-07-19T15:18:52.946Z,48.71
2018-07-19T15:21:21.280Z,49.98
2018-07-19T15:23:51.876Z,51.14
2018-07-19T15:26:19.386Z,52.08
2018-07-19T15:28:47.785Z,52.75
2018-07-19T15:31:16.113Z,52.89
2018-07-19T15:33:45.481Z,52.18
2018-07-19T15:36:13.025Z,51.40
2018-07-19T15:38:41.919Z,50.74
2018-07-19T15:41:11.939Z,50.12
2018-07-19T15:43:39.989Z,50.66
2018-07-19T15:46:08.021Z,51.17
2018-07-19T15:48:36.952Z,51.87
2018-07-19T15:51:05.377Z,52.00
2018-07-19T15:53:33.754Z,53.01
2018-07-19T15:56:02.303Z,53.08
2018-07-19T15:58:30.403Z,52.29
2018-07-19T16:01:04.781Z,51.00
2018-07-19T16:03:33.137Z,50.52
2018-07-19T16:06:01.483Z,49.75
2018-07-19T16:08:31.742Z,49.48
2018-07-19T16:11:01.084Z,48.56
2018-07-19T16:13:30.090Z,47.88
2018-07-19T16:16:00.859Z,48.28
2018-07-19T16:18:28.977Z,48.58
2018-07-19T16:20:58.545Z,49.02
2018-07-19T16:23:26.972Z,48.85
2018-07-19T16:25:55.159Z,48.91
2018-07-19T16:28:23.785Z,49.25
2018-07-19T16:30:52.375Z,48.98
2018-07-19T16:33:20.748Z,49.63
2018-07-19T16:35:49.347Z,49.81
2018-07-19T16:38:17.438Z,50.58
2018-07-19T16:40:45.223Z,51.11
2018-07-19T16:43:14.137Z,52.05
2018-07-19T16:45:42.482Z,52.89
2018-07-19T16:48:10.364Z,53.33
2018-07-19T16:50:39.302Z,53.63
2018-07-19T16:53:07.661Z,54.15
2018-07-19T16:55:35.522Z,54.66
2018-07-19T16:58:05.410Z,55.38
2018-07-19T17:00:34.062Z,56.14
2018-07-19T17:03:02.451Z,56.39
2018-07-19T17:05:31.046Z,58.36
2018-07-19T17:07:58.789Z,59.19
2018-07-19T17:13:16.882Z,62.42
2018-07-19T17:15:44.639Z,64.56
2018-07-19T17:18:13.861Z,65.32
2018-07-19T17:20:42.417Z,65.88
2018-07-19T17:23:10.532Z,65.82
2018-07-19T17:25:38.356Z,66.23
2018-07-19T17:28:07.296Z,66.76
2018-07-19T17:30:35.966Z,68.07
2018-07-19T17:33:05.308Z,68.00
2018-07-19T17:35:33.745Z,69.12
2018-07-19T17:38:02.728Z,70.38
2018-07-19T17:40:31.064Z,70.74
2018-07-19T17:43:00.024Z,70.67
2018-07-19T17:45:27.842Z,72.04
2018-07-19T17:47:57.438Z,71.88
2018-07-19T17:50:28.597Z,72.58
2018-07-19T17:52:56.947Z,72.47
2018-07-19T17:55:25.314Z,73.30
2018-07-19T17:57:54.890Z,74.38
2018-07-19T18:00:22.997Z,73.42
2018-07-19T18:02:51.342Z,74.19
2018-07-19T18:05:19.119Z,74.06
2018-07-19T18:07:48.021Z,74.55
2018-07-19T18:10:16.365Z,74.83
2018-07-19T18:12:44.751Z,74.58
2018-07-19T18:15:23.675Z,74.67
2018-07-19T18:17:46.820Z,74.28
2018-07-19T18:20:15.202Z,74.38
2018-07-19T18:22:42.998Z,74.10
2018-07-19T18:25:11.896Z,73.97
2018-07-19T18:27:40.443Z,73.86
2018-07-19T18:30:08.569Z,74.04
2018-07-19T18:32:36.901Z,74.50
2018-07-19T18:35:05.263Z,74.46
2018-07-19T18:37:33.612Z,74.20
2018-07-19T18:40:01.966Z,73.96
2018-07-19T18:42:31.314Z,73.93
2018-07-19T18:44:58.815Z,74.28
2018-07-19T18:47:26.684Z,74.40
2018-07-19T18:49:55.589Z,74.62
2018-07-19T18:52:23.345Z,74.70
2018-07-19T18:54:52.267Z,74.78
2018-07-19T18:57:20.016Z,74.90
2018-07-19T18:59:48.929Z,75.03
2018-07-19T19:02:16.707Z,74.84
2018-07-19T19:04:45.616Z,74.82
2018-07-19T19:07:13.959Z,75.17
2018-07-19T19:09:42.294Z,75.34
2018-07-19T19:12:10.087Z,75.17
2018-07-19T19:14:39.038Z,74.99
2018-07-19T19:17:07.378Z,75.06
2018-07-19T19:19:38.624Z,75.18
2018-07-19T19:22:06.395Z,75.23
2018-07-19T19:24:34.745Z,75.34
2018-07-19T19:27:03.089Z,75.23
2018-07-19T19:29:32.013Z,75.51
2018-07-19T19:31:59.767Z,75.56
2018-07-19T19:34:28.172Z,75.96
2018-07-19T19:36:56.492Z,75.92
2018-07-19T19:39:37.606Z,75.91
2018-07-19T19:42:06.583Z,75.84
2018-07-19T19:44:35.232Z,75.71
2018-07-19T19:47:03.944Z,75.55
2018-07-19T19:49:31.853Z,75.64
2018-07-19T19:52:01.959Z,75.98
2018-07-19T19:54:30.077Z,76.15
2018-07-19T19:56:59.218Z,76.51
2018-07-19T19:59:33.664Z,76.43
2018-07-19T20:02:02.808Z,76.66
2018-07-19T20:04:30.250Z,76.62
2018-07-19T20:07:02.015Z,76.69
2018-07-19T20:09:39.752Z,76.83
2018-07-19T20:12:01.641Z,77.24
2018-07-19T20:14:31.839Z,77.40
2018-07-19T20:17:02.453Z,77.87
2018-07-19T20:19:29.841Z,78.11
2018-07-19T20:21:59.227Z,77.87
2018-07-19T20:24:27.575Z,77.64
2018-07-19T20:26:56.099Z,77.89
2018-07-19T20:29:39.740Z,77.66
2018-07-19T20:32:14.560Z,77.28
2018-07-19T20:34:42.355Z,77.09
2018-07-19T20:37:10.682Z,77.29
2018-07-19T20:39:39.787Z,77.69
2018-07-19T20:42:08.931Z,78.97
2018-07-19T20:44:37.574Z,79.27
2018-07-19T20:47:07.216Z,80.04
2018-07-19T20:49:48.091Z,80.22
2018-07-19T20:52:14.814Z,81.07
2018-07-19T20:54:43.465Z,81.07
2018-07-19T20:57:12.683Z,81.37
2018-07-19T21:02:42.570Z,82.52
2018-07-19T21:05:11.086Z,82.88
2018-07-19T21:07:38.860Z,83.33
2018-07-19T21:10:17.057Z,83.84
2018-07-19T21:12:44.708Z,84.01
2018-07-19T21:15:12.502Z,84.03
2018-07-19T21:17:41.602Z,83.67
2018-07-19T21:20:11.439Z,84.11
2018-07-19T21:22:39.901Z,84.17
2018-07-19T21:25:08.596Z,84.24
2018-07-19T21:27:36.922Z,84.30
2018-07-19T21:30:05.346Z,84.19
2018-07-19T21:32:33.670Z,83.80
2018-07-19T21:35:03.006Z,84.46
2018-07-19T21:37:34.588Z,84.25
2018-07-19T21:40:02.573Z,84.10
2018-07-19T21:42:43.226Z,84.36
2018-07-19T21:45:12.398Z,84.75
2018-07-19T21:47:42.284Z,84.84
2018-07-19T21:50:13.611Z,84.40
2018-07-19T21:52:42.261Z,84.19
2018-07-19T21:55:10.380Z,83.95
2018-07-19T21:57:39.912Z,83.82
2018-07-19T22:00:07.658Z,83.92
2018-07-19T22:02:37.842Z,84.35
2018-07-19T22:05:06.194Z,84.61
2018-07-19T22:07:35.448Z,84.95
2018-07-19T22:10:04.614Z,84.97
2018-07-19T22:12:35.375Z,85.26
2018-07-19T22:15:03.755Z,84.97
2018-07-19T22:17:32.417Z,85.26
2018-07-19T22:20:06.418Z,85.07
2018-07-19T22:22:35.046Z,85.12
2018-07-19T22:25:03.643Z,85.31
2018-07-19T22:27:31.969Z,85.29
2018-07-19T22:30:00.924Z,85.23
2018-07-19T22:32:29.338Z,85.20
2018-07-19T22:34:58.667Z,84.92
2018-07-19T22:37:26.400Z,84.70
2018-07-19T22:39:55.314Z,84.48
2018-07-19T22:42:25.346Z,84.55
2018-07-19T22:44:54.393Z,84.44
2018-07-19T22:47:22.161Z,84.65
2018-07-19T22:49:50.528Z,84.91
2018-07-19T22:52:19.861Z,84.85
2018-07-19T22:54:48.118Z,84.88
2018-07-19T22:57:15.867Z,84.86
2018-07-19T22:59:44.780Z,84.78
2018-07-19T23:02:13.119Z,84.99
2018-07-19T23:04:41.439Z,85.08
2018-07-19T23:07:09.184Z,85.20
2018-07-19T23:09:38.096Z,85.34
2018-07-19T23:12:06.428Z,85.23
2018-07-19T23:14:34.759Z,85.29
2018-07-19T23:17:03.122Z,85.56
2018-07-19T23:19:31.453Z,85.46
2018-07-19T23:21:59.783Z,85.39
2018-07-19T23:24:28.120Z,85.32
2018-07-19T23:26:56.463Z,85.28
2018-07-19T23:29:24.805Z,85.49
2018-07-19T23:31:53.136Z,85.52
2018-07-19T23:34:20.884Z,85.39
2018-07-19T23:36:49.813Z,85.25
2018-07-19T23:39:17.945Z,85.16
2018-07-19T23:41:45.888Z,85.38
2018-07-19T23:44:14.805Z,85.70
2018-07-19T23:46:42.553Z,85.97
2018-07-19T23:49:10.921Z,86.04
2018-07-19T23:51:39.201Z,85.98
2018-07-19T23:54:07.528Z,86.03
2018-07-19T23:56:36.441Z,85.73
2018-07-19T23:59:04.764Z,85.98
